Time;durP1;ratioP1;P1;durP2;ratioP2;P2;SDS_P1;SDS_P2;PMS_P1;PMS_P2;Temp;Humidity;BMP_temperature;BMP_pressure;BME280_temperature;BME280_humidity;BME280_pressure;Samples;Min_cycle;Max_cycle;Signal;HPM_P1;HPM_P2
2021/09/03 00:00:09;;;;;;;0.30;0.20;;;14.60;99.90;;;;;;5033652;28;20178;-68
2021/09/03 00:02:39;;;;;;;0.30;0.20;;;14.70;99.90;;;;;;5033516;28;20173;-69
2021/09/03 00:05:07;;;;;;;0.30;0.20;;;14.50;99.90;;;;;;5033682;28;20488;-68
2021/09/03 00:07:33;;;;;;;0.30;0.17;;;14.50;99.90;;;;;;5033572;28;20189;-69
2021/09/03 00:09:58;;;;;;;0.30;0.20;;;14.40;99.90;;;;;;5033406;28;20193;-70
2021/09/03 00:12:24;;;;;;;0.30;0.20;;;14.40;99.90;;;;;;5033528;28;20276;-70
2021/09/03 00:14:50;;;;;;;0.40;0.20;;;14.40;99.90;;;;;;5033376;28;20213;-70
2021/09/03 00:17:15;;;;;;;0.30;0.20;;;14.40;99.90;;;;;;5033273;28;20181;-70
2021/09/03 00:19:41;;;;;;;0.30;0.10;;;14.40;99.90;;;;;;5033484;28;20182;-70
2021/09/03 00:22:07;;;;;;;0.40;0.10;;;14.40;99.90;;;;;;5033562;28;20661;-70
2021/09/03 00:24:33;;;;;;;0.30;0.20;;;14.30;99.90;;;;;;5033348;28;20436;-70
2021/09/03 00:26:58;;;;;;;0.30;0.20;;;14.30;99.90;;;;;;5033446;28;20430;-70
2021/09/03 00:29:24;;;;;;;0.30;0.20;;;14.30;99.90;;;;;;5033331;28;20182;-70
2021/09/03 00:31:49;;;;;;;0.30;0.20;;;14.20;99.90;;;;;;5033313;28;20185;-70
2021/09/03 00:34:15;;;;;;;0.30;0.20;;;14.20;99.90;;;;;;5033294;28;20188;-70
2021/09/03 00:36:46;;;;;;;0.40;0.20;;;14.20;99.90;;;;;;5033406;28;20182;-69
2021/09/03 00:39:12;;;;;;;0.30;0.20;;;14.10;99.90;;;;;;5033179;28;20636;-68
2021/09/03 00:41:38;;;;;;;0.30;0.20;;;14.30;99.90;;;;;;5033273;28;20220;-68
2021/09/03 00:44:04;;;;;;;0.30;0.20;;;14.30;99.90;;;;;;5033323;28;20526;-68
2021/09/03 00:46:29;;;;;;;0.30;0.20;;;14.20;99.90;;;;;;5031867;28;20486;-69
2021/09/03 00:48:56;;;;;;;0.30;0.20;;;14.10;99.90;;;;;;5032956;28;20192;-69
2021/09/03 00:51:22;;;;;;;0.30;0.20;;;14.00;99.90;;;;;;5032665;28;20212;-69
2021/09/03 00:53:48;;;;;;;0.30;0.20;;;14.00;99.90;;;;;;5033400;28;20315;-69
2021/09/03 00:56:14;;;;;;;0.30;0.10;;;14.00;99.90;;;;;;5031749;28;20292;-69
2021/09/03 00:58:40;;;;;;;0.30;0.20;;;13.90;99.90;;;;;;5032837;28;20440;-69
2021/09/03 01:01:05;;;;;;;0.30;0.20;;;13.90;99.90;;;;;;5033173;28;20192;-69
2021/09/03 01:03:31;;;;;;;0.30;0.20;;;13.80;99.90;;;;;;5033159;28;20208;-68
2021/09/03 01:06:02;;;;;;;0.30;0.20;;;13.90;99.90;;;;;;5033272;28;20491;-68
2021/09/03 01:08:28;;;;;;;0.30;0.20;;;13.80;99.90;;;;;;5033112;28;20289;-69
2021/09/03 01:10:53;;;;;;;0.30;0.20;;;13.90;99.90;;;;;;5033069;28;20678;-69
2021/09/03 01:13:19;;;;;;;0.40;0.27;;;14.00;99.90;;;;;;5032962;28;20428;-69
2021/09/03 01:15:44;;;;;;;0.30;0.20;;;14.00;99.90;;;;;;5032935;28;20618;-69
2021/09/03 01:18:10;;;;;;;0.40;0.40;;;14.00;99.90;;;;;;5032686;28;20208;-68
2021/09/03 01:20:36;;;;;;;0.30;0.20;;;14.00;99.90;;;;;;5033016;28;20188;-68
2021/09/03 01:23:01;;;;;;;0.30;0.10;;;14.00;99.90;;;;;;5032016;28;20185;-68
2021/09/03 01:25:27;;;;;;;0.30;0.20;;;13.90;99.90;;;;;;5032994;28;20182;-69
2021/09/03 01:27:52;;;;;;;0.30;0.20;;;13.90;99.90;;;;;;5032857;28;20185;-69
2021/09/03 01:30:18;;;;;;;0.30;0.20;;;13.90;99.90;;;;;;5033299;28;20194;-69
2021/09/03 01:32:44;;;;;;;0.30;0.10;;;13.90;99.90;;;;;;5036429;28;20661;-69
2021/09/03 01:35:10;;;;;;;0.30;0.20;;;13.90;99.90;;;;;;5036417;28;20198;-69
2021/09/03 01:37:36;;;;;;;0.30;0.10;;;13.90;99.90;;;;;;5035181;28;20189;-69
2021/09/03 01:40:03;;;;;;;0.30;0.20;;;13.80;99.90;;;;;;5036192;28;20181;-69
2021/09/03 01:42:28;;;;;;;0.30;0.20;;;13.70;99.90;;;;;;5036284;28;20174;-69
2021/09/03 01:44:54;;;;;;;0.70;0.70;;;13.70;99.90;;;;;;5036187;28;20186;-68
2021/09/03 01:47:19;;;;;;;0.30;0.20;;;13.70;99.90;;;;;;5036202;28;20185;-68
2021/09/03 01:49:45;;;;;;;0.30;0.20;;;13.70;99.90;;;;;;5035990;28;20234;-70
2021/09/03 01:52:10;;;;;;;0.30;0.20;;;13.70;99.90;;;;;;5036137;28;20217;-69
2021/09/03 01:54:36;;;;;;;0.73;0.73;;;13.70;99.90;;;;;;5036017;28;20270;-69
2021/09/03 01:57:02;;;;;;;0.30;0.20;;;13.70;99.90;;;;;;5035867;28;20618;-68
2021/09/03 01:59:27;;;;;;;0.30;0.30;;;13.60;99.90;;;;;;5035620;28;20669;-68
2021/09/03 02:01:53;;;;;;;0.30;0.20;;;13.50;99.90;;;;;;5035983;28;20177;-68
2021/09/03 02:04:19;;;;;;;0.30;0.20;;;13.60;99.90;;;;;;5035909;28;20812;-68
2021/09/03 02:06:44;;;;;;;0.30;0.20;;;13.60;99.90;;;;;;5035691;28;20203;-68
2021/09/03 02:09:10;;;;;;;0.30;0.20;;;13.70;99.90;;;;;;5035863;28;20186;-68
2021/09/03 02:11:35;;;;;;;0.87;0.87;;;13.70;99.90;;;;;;5035714;28;20203;-68
2021/09/03 02:14:02;;;;;;;0.30;0.20;;;13.60;99.90;;;;;;5035662;28;20178;-68
2021/09/03 02:16:27;;;;;;;0.30;0.20;;;13.60;99.90;;;;;;5034695;28;20630;-68
2021/09/03 02:18:53;;;;;;;0.30;0.20;;;13.40;99.90;;;;;;5035582;28;20209;-68
2021/09/03 02:21:18;;;;;;;0.30;0.20;;;13.50;99.90;;;;;;5035552;28;20173;-68
2021/09/03 02:23:45;;;;;;;0.30;0.20;;;13.50;99.90;;;;;;5035523;28;20185;-68
2021/09/03 02:26:10;;;;;;;0.30;0.20;;;13.60;99.90;;;;;;5035472;28;20684;-68
2021/09/03 02:28:36;;;;;;;0.30;0.20;;;13.60;99.90;;;;;;5035227;28;20174;-68
2021/09/03 02:31:01;;;;;;;0.30;0.10;;;13.60;99.90;;;;;;5035326;28;20174;-69
2021/09/03 02:33:27;;;;;;;0.60;0.60;;;13.60;99.90;;;;;;5035358;28;20194;-69
2021/09/03 02:35:53;;;;;;;0.40;0.40;;;13.50;99.90;;;;;;5035374;28;20209;-69
2021/09/03 02:38:18;;;;;;;0.30;0.10;;;13.50;99.90;;;;;;5034986;28;20185;-69
2021/09/03 02:40:44;;;;;;;0.30;0.20;;;13.50;99.90;;;;;;5035240;28;20178;-70
2021/09/03 02:43:09;;;;;;;0.30;0.20;;;13.40;99.90;;;;;;5035057;28;20661;-70
2021/09/03 02:45:35;;;;;;;9.63;1.90;;;13.50;99.90;;;;;;5035091;28;20189;-70
2021/09/03 02:48:01;;;;;;;1.97;1.80;;;13.40;99.90;;;;;;5033956;28;20243;-70
2021/09/03 02:50:29;;;;;;;0.30;0.20;;;13.50;99.90;;;;;;5035037;28;20900;-70
2021/09/03 02:52:56;;;;;;;0.30;0.20;;;13.40;99.90;;;;;;5035017;28;20442;-70
2021/09/03 02:55:22;;;;;;;0.30;0.10;;;13.50;99.90;;;;;;5034922;28;20634;-70
2021/09/03 02:57:48;;;;;;;0.30;0.10;;;13.40;99.90;;;;;;5034858;28;20518;-70
2021/09/03 03:00:14;;;;;;;0.30;0.20;;;13.20;99.90;;;;;;5034845;28;20196;-70
2021/09/03 03:02:40;;;;;;;0.30;0.20;;;13.30;99.90;;;;;;5035128;28;20621;-70
2021/09/03 03:05:06;;;;;;;0.30;0.20;;;13.40;99.90;;;;;;5034898;28;20205;-70
2021/09/03 03:07:32;;;;;;;2.70;2.20;;;13.40;99.90;;;;;;5034527;28;20645;-69
2021/09/03 03:09:58;;;;;;;0.30;0.20;;;13.50;99.90;;;;;;5034545;28;20185;-69
2021/09/03 03:12:23;;;;;;;0.30;0.20;;;13.50;99.90;;;;;;5034613;28;20431;-70
2021/09/03 03:14:49;;;;;;;0.30;0.20;;;13.60;99.90;;;;;;5033543;28;20209;-70
2021/09/03 03:17:14;;;;;;;0.30;0.20;;;13.50;99.90;;;;;;5034554;28;20178;-70
2021/09/03 03:19:40;;;;;;;0.30;0.20;;;13.60;99.90;;;;;;5033609;28;20284;-67
2021/09/03 03:22:06;;;;;;;0.30;0.20;;;13.60;99.90;;;;;;5034619;28;20518;-69
2021/09/03 03:24:31;;;;;;;0.30;0.20;;;13.70;99.90;;;;;;5034456;28;20216;-68
2021/09/03 03:26:57;;;;;;;0.30;0.20;;;13.70;99.90;;;;;;5034249;28;20177;-68
2021/09/03 03:29:24;;;;;;;0.30;0.20;;;13.70;99.90;;;;;;5034092;28;20186;-68
2021/09/03 03:31:49;;;;;;;0.45;0.40;;;13.80;99.90;;;;;;5034195;28;20450;-69
2021/09/03 03:34:15;;;;;;;0.30;0.20;;;13.90;99.90;;;;;;5034213;28;20182;-69
2021/09/03 03:36:41;;;;;;;0.30;0.20;;;14.10;99.90;;;;;;5033874;28;20229;-69
2021/09/03 03:39:07;;;;;;;0.30;0.20;;;14.20;99.90;;;;;;5034007;28;20173;-69
2021/09/03 03:41:33;;;;;;;0.30;0.20;;;14.30;99.90;;;;;;5033981;28;20170;-67
2021/09/03 03:43:59;;;;;;;0.30;0.20;;;14.30;99.90;;;;;;5034047;28;20180;-68
2021/09/03 03:46:25;;;;;;;0.30;0.10;;;14.30;99.90;;;;;;5034140;28;20177;-69
2021/09/03 03:48:51;;;;;;;0.97;0.87;;;14.30;99.90;;;;;;5033828;28;20185;-68
2021/09/03 03:51:17;;;;;;;0.30;0.20;;;14.50;99.90;;;;;;5033997;28;20431;-68
2021/09/03 03:53:42;;;;;;;2.67;2.23;;;14.50;99.90;;;;;;5033102;28;20182;-68
2021/09/03 03:56:08;;;;;;;0.40;0.20;;;14.40;99.90;;;;;;5032745;28;20630;-68
2021/09/03 03:58:33;;;;;;;0.50;0.40;;;14.50;99.90;;;;;;5033707;28;20193;-68
2021/09/03 04:00:59;;;;;;;0.40;0.20;;;14.40;99.90;;;;;;5032737;28;20619;-67
2021/09/03 04:03:24;;;;;;;0.30;0.20;;;14.40;99.90;;;;;;5033810;28;20218;-68
2021/09/03 04:05:50;;;;;;;1.67;1.57;;;14.40;99.90;;;;;;5033962;28;20177;-67
2021/09/03 04:08:15;;;;;;;0.40;0.40;;;14.50;99.90;;;;;;5032566;28;20344;-67
2021/09/03 04:10:41;;;;;;;0.40;0.30;;;14.60;99.90;;;;;;5033676;28;20231;-67
2021/09/03 04:13:07;;;;;;;0.60;0.60;;;14.60;99.90;;;;;;5033683;28;20186;-67
2021/09/03 04:15:32;;;;;;;0.30;0.20;;;14.70;99.90;;;;;;5033656;28;20209;-68
2021/09/03 04:17:58;;;;;;;0.87;0.67;;;14.80;99.90;;;;;;5033561;28;20260;-67
2021/09/03 04:20:23;;;;;;;0.30;0.20;;;14.80;99.90;;;;;;5033620;28;20185;-67
2021/09/03 04:22:49;;;;;;;0.40;0.30;;;14.70;99.90;;;;;;5033611;28;20284;-68
2021/09/03 04:25:15;;;;;;;1.37;0.53;;;14.70;99.90;;;;;;5032395;28;20204;-67
2021/09/03 04:27:41;;;;;;;1.00;0.80;;;14.70;99.90;;;;;;5033263;28;20211;-67
2021/09/03 04:30:08;;;;;;;0.30;0.20;;;14.80;99.90;;;;;;5032237;28;20276;-68
2021/09/03 04:32:34;;;;;;;0.73;0.63;;;14.90;99.90;;;;;;5033339;28;20237;-68
2021/09/03 04:34:59;;;;;;;1.07;1.03;;;15.00;99.90;;;;;;5033212;28;20664;-68
2021/09/03 04:37:25;;;;;;;0.40;0.30;;;14.90;99.90;;;;;;5033432;28;20180;-68
2021/09/03 04:39:51;;;;;;;2.70;0.63;;;14.90;99.90;;;;;;5033218;28;20270;-68
2021/09/03 04:42:16;;;;;;;0.40;0.30;;;14.90;99.90;;;;;;5033208;28;20227;-68
2021/09/03 04:44:42;;;;;;;0.40;0.40;;;14.90;99.90;;;;;;5033284;28;20523;-68
2021/09/03 04:47:07;;;;;;;0.30;0.20;;;14.80;99.90;;;;;;5033236;28;20174;-68
2021/09/03 04:49:33;;;;;;;0.40;0.20;;;14.90;99.90;;;;;;5033135;28;20173;-67
2021/09/03 04:51:58;;;;;;;2.50;2.30;;;15.00;99.90;;;;;;5033179;28;20261;-68
2021/09/03 04:54:24;;;;;;;1.47;0.50;;;15.00;99.90;;;;;;5033294;28;20182;-68
2021/09/03 04:56:50;;;;;;;0.77;0.77;;;15.10;99.90;;;;;;5033085;28;20277;-68
2021/09/03 04:59:15;;;;;;;2.53;2.37;;;15.10;99.90;;;;;;5031888;28;20236;-68
2021/09/03 05:01:41;;;;;;;2.63;1.37;;;15.10;99.90;;;;;;5032938;28;20192;-68
2021/09/03 05:04:07;;;;;;;0.53;0.53;;;15.10;99.90;;;;;;5033258;28;20543;-68
2021/09/03 05:06:32;;;;;;;0.30;0.20;;;15.10;99.90;;;;;;5035828;28;20205;-68
2021/09/03 05:08:58;;;;;;;2.00;1.20;;;15.30;99.90;;;;;;5036758;28;20178;-68
2021/09/03 05:11:23;;;;;;;0.40;0.20;;;15.30;99.90;;;;;;5036758;28;20231;-68
2021/09/03 05:13:49;;;;;;;0.90;0.70;;;15.30;99.90;;;;;;5036546;28;20261;-68
2021/09/03 05:16:15;;;;;;;0.47;0.40;;;15.30;99.90;;;;;;5036802;28;20607;-68
2021/09/03 05:18:40;;;;;;;1.23;0.90;;;15.40;99.90;;;;;;5036385;28;20178;-68
2021/09/03 05:21:07;;;;;;;0.80;0.80;;;15.40;99.90;;;;;;5036449;28;20181;-68
2021/09/03 05:23:33;;;;;;;4.72;1.25;;;15.30;99.90;;;;;;5036489;28;20189;-68
2021/09/03 05:25:59;;;;;;;0.60;0.47;;;15.30;99.90;;;;;;5036453;28;20629;-68
2021/09/03 05:28:27;;;;;;;0.60;0.40;;;15.40;99.90;;;;;;5036271;28;20269;-68
2021/09/03 05:30:52;;;;;;;1.07;0.83;;;15.70;99.90;;;;;;5036441;28;20274;-70
2021/09/03 05:33:18;;;;;;;1.27;1.17;;;15.80;99.90;;;;;;5036310;28;20819;-70
2021/09/03 05:35:43;;;;;;;0.40;0.20;;;15.70;99.90;;;;;;5036174;28;20209;-70
2021/09/03 05:38:09;;;;;;;2.40;1.77;;;15.70;99.90;;;;;;5035055;28;20324;-69
2021/09/03 05:40:35;;;;;;;2.03;1.93;;;15.70;99.90;;;;;;5035771;28;20571;-69
2021/09/03 05:43:01;;;;;;;1.20;0.67;;;15.70;99.90;;;;;;5035834;28;20174;-69
2021/09/03 05:45:27;;;;;;;4.00;2.10;;;15.70;99.90;;;;;;5035761;28;20506;-69
2021/09/03 05:47:53;;;;;;;0.40;0.20;;;15.70;99.90;;;;;;5036153;28;20428;-68
2021/09/03 05:50:19;;;;;;;1.87;1.70;;;15.70;99.90;;;;;;5035689;28;20510;-68
2021/09/03 05:52:45;;;;;;;0.57;0.50;;;15.60;99.90;;;;;;5035697;28;20196;-68
2021/09/03 05:55:11;;;;;;;1.53;0.50;;;15.80;99.90;;;;;;5035638;28;20213;-68
2021/09/03 05:57:37;;;;;;;0.98;0.63;;;15.80;99.90;;;;;;5035682;28;20246;-68
2021/09/03 06:00:03;;;;;;;1.90;0.87;;;15.90;99.90;;;;;;5035464;28;20177;-68
2021/09/03 06:02:29;;;;;;;1.07;1.07;;;15.90;99.90;;;;;;5035486;28;20173;-68
2021/09/03 06:04:55;;;;;;;0.40;0.20;;;15.90;99.90;;;;;;5036067;28;20428;-68
2021/09/03 06:07:20;;;;;;;3.10;2.97;;;16.00;99.90;;;;;;5034753;28;20182;-68
2021/09/03 06:09:46;;;;;;;0.40;0.13;;;16.10;99.90;;;;;;5035716;28;20200;-68
2021/09/03 06:12:11;;;;;;;0.70;0.67;;;16.20;99.90;;;;;;5035535;28;20281;-68
2021/09/03 06:14:37;;;;;;;0.50;0.50;;;16.20;99.90;;;;;;5035546;28;20267;-68
2021/09/03 06:17:04;;;;;;;0.60;0.40;;;16.10;99.90;;;;;;5046033;28;20586;-68
2021/09/03 06:19:30;;;;;;;1.30;1.23;;;16.10;99.90;;;;;;5054386;28;20184;-68
2021/09/03 06:21:57;;;;;;;0.90;0.80;;;16.10;99.90;;;;;;5054825;28;20423;-68
2021/09/03 06:24:33;;;;;;;3.03;2.83;;;16.10;99.90;;;;;;5055616;28;20739;-68
2021/09/03 06:27:02;;;;;;;1.90;1.80;;;16.00;99.90;;;;;;5055823;28;20423;-68
2021/09/03 06:29:38;;;;;;;0.80;0.80;;;16.10;99.90;;;;;;5055833;28;20514;-68
2021/09/03 06:32:18;;;;;;;0.40;0.20;;;16.20;99.90;;;;;;5055285;28;20915;-68
2021/09/03 06:34:55;;;;;;;0.60;0.60;;;16.50;99.90;;;;;;5055495;28;20446;-68
2021/09/03 06:37:22;;;;;;;3.23;1.70;;;16.70;99.90;;;;;;5055890;28;20187;-68
2021/09/03 06:39:48;;;;;;;2.83;1.90;;;16.70;99.90;;;;;;5052333;28;20437;-68
2021/09/03 06:42:14;;;;;;;0.40;0.23;;;16.70;99.90;;;;;;5054196;28;20463;-68
2021/09/03 06:44:41;;;;;;;0.40;0.20;;;16.70;99.90;;;;;;5045950;28;20448;-70
2021/09/03 06:47:08;;;;;;;2.50;1.57;;;16.70;99.90;;;;;;5048973;28;20473;-71
2021/09/03 06:49:34;;;;;;;0.40;0.20;;;16.70;99.90;;;;;;5062856;28;20913;-71
2021/09/03 06:52:04;;;;;;;0.50;0.40;;;16.60;99.90;;;;;;5051350;28;20446;-70
2021/09/03 06:54:31;;;;;;;0.53;0.53;;;16.70;99.90;;;;;;5055059;28;20432;-70
2021/09/03 06:56:57;;;;;;;0.40;0.20;;;16.70;99.90;;;;;;5055134;28;20453;-70
2021/09/03 06:59:23;;;;;;;0.40;0.20;;;17.00;99.90;;;;;;5065707;28;20501;-69
2021/09/03 07:01:48;;;;;;;2.50;1.40;;;17.30;47.80;;;;;;5035132;28;20526;-68
2021/09/03 07:04:14;;;;;;;1.90;1.80;;;17.10;31.10;;;;;;5051738;28;20254;-72
2021/09/03 07:06:43;;;;;;;1.73;1.40;;;17.00;85.50;;;;;;5055602;28;20184;-74
2021/09/03 07:09:09;;;;;;;1.63;0.83;;;17.00;72.60;;;;;;5055623;28;20177;-74
2021/09/03 07:11:35;;;;;;;3.57;1.70;;;17.20;93.70;;;;;;5054753;28;20443;-73
2021/09/03 07:14:02;;;;;;;3.43;2.70;;;17.30;1.00;;;;;;5055440;28;20537;-72
2021/09/03 07:16:28;;;;;;;2.50;0.90;;;17.10;40.10;;;;;;5064109;28;20597;-71
2021/09/03 07:18:54;;;;;;;5.03;2.33;;;16.80;99.90;;;;;;5034863;28;20897;-73
2021/09/03 07:21:20;;;;;;;2.60;1.30;;;16.70;99.90;;;;;;5052442;28;20185;-71
2021/09/03 07:23:45;;;;;;;1.57;1.20;;;16.40;99.90;;;;;;5054971;28;20217;-70
2021/09/03 07:26:11;;;;;;;2.00;1.77;;;16.30;99.90;;;;;;5053502;28;20762;-71
2021/09/03 07:28:36;;;;;;;3.03;1.97;;;16.20;99.90;;;;;;5052977;28;20621;-72
2021/09/03 07:31:02;;;;;;;2.80;0.83;;;16.40;99.90;;;;;;5054129;28;20177;-72
2021/09/03 07:33:28;;;;;;;1.17;0.67;;;16.60;99.90;;;;;;5053977;28;20612;-71
2021/09/03 07:35:53;;;;;;;1.03;1.03;;;16.60;99.90;;;;;;5054506;28;20204;-71
2021/09/03 07:38:19;;;;;;;1.73;1.57;;;16.60;99.90;;;;;;5053807;28;20696;-72
2021/09/03 07:40:45;;;;;;;2.13;1.90;;;16.50;99.90;;;;;;5053872;28;20513;-71
2021/09/03 07:43:11;;;;;;;6.30;3.97;;;16.40;99.90;;;;;;5053840;28;20545;-71
2021/09/03 07:45:38;;;;;;;1.43;1.10;;;16.60;99.90;;;;;;5053900;28;20423;-73
2021/09/03 07:48:05;;;;;;;0.40;0.20;;;16.80;99.90;;;;;;5053336;28;20435;-72
2021/09/03 07:50:35;;;;;;;3.07;2.13;;;16.80;99.90;;;;;;5063980;28;20765;-73
2021/09/03 07:53:02;;;;;;;2.13;2.03;;;16.90;99.90;;;;;;5033663;28;20506;-73
2021/09/03 07:55:28;;;;;;;2.87;1.80;;;17.00;99.90;;;;;;5051229;28;20470;-72
2021/09/03 07:57:54;;;;;;;0.50;0.40;;;16.80;99.90;;;;;;5052318;28;20474;-70
2021/09/03 08:00:20;;;;;;;2.20;0.50;;;16.60;99.90;;;;;;5053141;28;20428;-71
2021/09/03 08:02:46;;;;;;;1.63;1.50;;;16.90;99.90;;;;;;5053597;28;20441;-72
2021/09/03 08:05:11;;;;;;;1.73;0.83;;;16.70;99.90;;;;;;5053798;28;20662;-72
2021/09/03 08:07:41;;;;;;;0.50;0.40;;;16.50;99.90;;;;;;5053169;28;20621;-72
2021/09/03 08:10:09;;;;;;;0.40;0.20;;;16.90;99.90;;;;;;5053426;28;20180;-72
2021/09/03 08:12:34;;;;;;;3.87;3.00;;;17.10;99.90;;;;;;5053509;28;20793;-71
2021/09/03 08:15:00;;;;;;;5.50;4.43;;;17.30;95.40;;;;;;5033515;28;20554;-71
2021/09/03 08:17:26;;;;;;;4.97;1.80;;;17.30;1.40;;;;;;5033492;28;20189;-72
2021/09/03 08:19:51;;;;;;;0.50;0.37;;;17.20;19.00;;;;;;5033329;28;20253;-71
2021/09/03 08:22:17;;;;;;;2.00;1.80;;;17.40;14.00;;;;;;5032333;28;20243;-71
2021/09/03 08:24:42;;;;;;;3.37;3.17;;;17.70;1.00;;;;;;5033422;28;20236;-72
2021/09/03 08:27:08;;;;;;;1.53;1.13;;;17.90;1.00;;;;;;5033813;28;20188;-73
2021/09/03 08:29:34;;;;;;;3.67;3.33;;;17.80;1.00;;;;;;5033889;28;20177;-72
2021/09/03 08:31:59;;;;;;;1.97;0.77;;;17.70;1.00;;;;;;5032866;28;20308;-69
2021/09/03 08:34:25;;;;;;;4.37;2.20;;;18.00;1.00;;;;;;5046396;28;20180;-72
2021/09/03 08:36:50;;;;;;;0.83;0.70;;;18.40;1.00;;;;;;5052611;28;20208;-72
2021/09/03 08:39:16;;;;;;;2.70;2.30;;;18.10;1.00;;;;;;5052665;28;20173;-72
2021/09/03 08:41:42;;;;;;;3.70;2.50;;;18.10;1.00;;;;;;5056287;28;20176;-71
2021/09/03 08:44:07;;;;;;;4.10;1.50;;;18.10;1.00;;;;;;5057133;28;20271;-72
2021/09/03 08:46:34;;;;;;;1.30;1.20;;;18.30;1.00;;;;;;5057133;28;20177;-68
2021/09/03 08:49:04;;;;;;;1.70;1.60;;;18.70;1.00;;;;;;5056771;28;20196;-73
2021/09/03 08:51:30;;;;;;;1.20;1.00;;;19.10;99.90;;;;;;5057407;28;20431;-74
2021/09/03 08:53:56;;;;;;;6.20;2.33;;;18.10;1.00;;;;;;5057076;28;20954;-74
2021/09/03 08:56:22;;;;;;;0.80;0.50;;;17.80;1.00;;;;;;5056957;28;20950;-72
2021/09/03 08:58:48;;;;;;;1.57;0.87;;;17.60;1.00;;;;;;5056099;28;20196;-71
2021/09/03 09:01:16;;;;;;;1.37;1.10;;;18.00;1.00;;;;;;5057187;28;20478;-71
2021/09/03 09:03:46;;;;;;;5.50;1.63;;;18.20;1.00;;;;;;5057207;28;20505;-71
2021/09/03 09:06:18;;;;;;;0.57;0.40;;;17.80;1.00;;;;;;5056635;28;20427;-69
2021/09/03 09:08:44;;;;;;;0.50;0.40;;;17.40;1.00;;;;;;5056459;28;20455;-70
2021/09/03 09:11:13;;;;;;;1.10;1.10;;;17.80;1.00;;;;;;5056580;28;20459;-70
2021/09/03 09:13:43;;;;;;;0.80;0.80;;;18.40;1.00;;;;;;5056588;28;20181;-70
2021/09/03 09:16:12;;;;;;;7.77;3.40;;;18.80;99.90;;;;;;5056277;28;20471;-70
2021/09/03 09:18:48;;;;;;;0.87;0.80;;;18.70;99.90;;;;;;5056237;28;20419;-72
2021/09/03 09:21:16;;;;;;;1.90;1.07;;;18.70;99.90;;;;;;5055371;28;20903;-74
2021/09/03 09:23:45;;;;;;;1.70;0.70;;;18.40;99.90;;;;;;5056433;28;20484;-72
2021/09/03 09:26:11;;;;;;;1.23;1.13;;;18.30;99.90;;;;;;5056491;28;20497;-72
2021/09/03 09:28:38;;;;;;;2.93;1.40;;;17.90;1.00;;;;;;5056356;28;20509;-71
2021/09/03 09:31:03;;;;;;;3.23;1.90;;;18.20;1.00;;;;;;5056417;28;20508;-74
2021/09/03 09:33:29;;;;;;;1.87;1.70;;;18.30;1.00;;;;;;5056018;28;20975;-74
2021/09/03 09:35:56;;;;;;;1.60;1.10;;;18.60;1.00;;;;;;5056151;28;20220;-71
2021/09/03 09:38:25;;;;;;;0.93;0.90;;;18.70;99.90;;;;;;5055708;28;20188;-71
2021/09/03 09:40:52;;;;;;;6.37;2.53;;;18.50;99.90;;;;;;5055792;28;20569;-71
2021/09/03 09:43:25;;;;;;;1.17;0.97;;;17.90;99.90;;;;;;5056053;28;20506;-71
2021/09/03 09:46:15;;;;;;;0.40;0.20;;;17.80;1.00;;;;;;5056026;28;20430;-71
2021/09/03 09:48:50;;;;;;;0.57;0.27;;;18.20;1.00;;;;;;5055675;28;20428;-70
2021/09/03 09:51:23;;;;;;;1.37;0.83;;;18.60;99.90;;;;;;5053604;28;20533;-68
2021/09/03 09:54:03;;;;;;;3.90;1.40;;;18.60;99.90;;;;;;5054884;28;20423;-69
2021/09/03 09:56:35;;;;;;;2.93;1.63;;;18.60;99.90;;;;;;5048984;28;20520;-69
2021/09/03 09:59:04;;;;;;;0.50;0.40;;;18.70;99.90;;;;;;5055593;28;20526;-69
2021/09/03 10:01:34;;;;;;;1.03;0.73;;;18.70;99.90;;;;;;5055604;28;20438;-71
2021/09/03 10:04:04;;;;;;;2.33;1.80;;;18.80;99.90;;;;;;5055544;28;20520;-71
2021/09/03 10:06:31;;;;;;;3.50;2.43;;;18.50;99.90;;;;;;5054465;28;20431;-71
2021/09/03 10:08:58;;;;;;;2.40;1.23;;;18.50;99.90;;;;;;5055708;28;20732;-71
2021/09/03 10:11:25;;;;;;;1.13;0.70;;;18.60;99.90;;;;;;5055278;28;20434;-71
2021/09/03 10:13:51;;;;;;;1.30;0.90;;;18.50;99.90;;;;;;5055330;28;20876;-71
2021/09/03 10:16:17;;;;;;;1.90;1.80;;;18.30;1.00;;;;;;5055133;28;20462;-70
2021/09/03 10:18:46;;;;;;;1.00;1.00;;;18.40;1.00;;;;;;5053905;28;20500;-70
2021/09/03 10:21:12;;;;;;;1.17;1.07;;;18.80;99.90;;;;;;5055338;28;20421;-70
2021/09/03 10:23:52;;;;;;;0.40;0.20;;;18.90;99.90;;;;;;5055451;28;20419;-71
2021/09/03 10:26:22;;;;;;;1.47;0.97;;;18.70;99.90;;;;;;5055399;28;20624;-73
2021/09/03 10:28:49;;;;;;;2.63;1.60;;;18.90;99.90;;;;;;5054992;28;20492;-72
2021/09/03 10:31:19;;;;;;;2.67;2.47;;;19.00;99.90;;;;;;5055205;28;20503;-71
2021/09/03 10:33:46;;;;;;;1.30;1.20;;;19.00;99.90;;;;;;5055256;28;20434;-73
2021/09/03 10:36:12;;;;;;;1.23;0.63;;;19.10;99.90;;;;;;5055133;28;20592;-72
2021/09/03 10:38:42;;;;;;;1.50;0.83;;;19.30;11.60;;;;;;5054860;28;20915;-72
2021/09/03 10:41:08;;;;;;;5.30;2.27;;;19.20;58.70;;;;;;5054952;28;20177;-72
2021/09/03 10:43:46;;;;;;;1.83;1.20;;;19.10;27.20;;;;;;5054991;28;20857;-72
2021/09/03 10:46:14;;;;;;;2.93;1.57;;;19.20;99.90;;;;;;5054635;28;20423;-74
2021/09/03 10:48:48;;;;;;;1.23;1.13;;;19.30;64.70;;;;;;5053491;28;20770;-71
2021/09/03 10:51:35;;;;;;;3.57;1.70;;;19.30;99.90;;;;;;5052391;28;20991;-70
2021/09/03 10:54:17;;;;;;;7.37;2.37;;;19.50;99.90;;;;;;5051005;28;20825;-70
2021/09/03 10:57:02;;;;;;;1.60;1.50;;;19.40;1.00;;;;;;5054650;28;20466;-69
2021/09/03 10:59:28;;;;;;;2.50;0.80;;;19.50;1.00;;;;;;5054016;28;20463;-70
2021/09/03 11:01:56;;;;;;;0.93;0.60;;;19.50;1.00;;;;;;5054401;28;20804;-71
2021/09/03 11:04:24;;;;;;;0.50;0.40;;;19.40;4.30;;;;;;5054079;28;20234;-71
2021/09/03 11:06:56;;;;;;;0.40;0.20;;;19.40;99.90;;;;;;5054098;28;20423;-71
2021/09/03 11:09:28;;;;;;;0.40;0.20;;;19.70;99.90;;;;;;5054631;28;20427;-73
2021/09/03 11:12:06;;;;;;;1.00;0.50;;;20.00;1.00;;;;;;5054489;28;20443;-72
2021/09/03 11:14:32;;;;;;;2.70;2.50;;;19.60;1.00;;;;;;5054252;28;20844;-72
2021/09/03 11:17:06;;;;;;;1.60;1.30;;;19.20;96.40;;;;;;5053824;28;20471;-73
2021/09/03 11:19:36;;;;;;;3.27;2.03;;;19.20;99.90;;;;;;5053808;28;20187;-73
2021/09/03 11:22:09;;;;;;;1.90;1.33;;;19.30;99.90;;;;;;5054135;28;20751;-73
2021/09/03 11:24:36;;;;;;;2.10;1.90;;;19.30;99.90;;;;;;5054009;28;20907;-73
2021/09/03 11:27:05;;;;;;;4.30;3.90;;;19.10;99.90;;;;;;5053495;28;20442;-69
2021/09/03 11:29:41;;;;;;;0.80;0.70;;;19.20;1.00;;;;;;5053362;28;20951;-69
2021/09/03 11:32:20;;;;;;;0.40;0.30;;;19.30;1.00;;;;;;5053616;28;20419;-70
2021/09/03 11:34:53;;;;;;;1.30;1.20;;;19.60;38.40;;;;;;5053462;28;20900;-70
2021/09/03 11:37:30;;;;;;;1.80;1.70;;;19.90;21.00;;;;;;5053178;28;20451;-70
2021/09/03 11:40:02;;;;;;;0.43;0.30;;;19.70;99.90;;;;;;5052678;28;20457;-70
2021/09/03 11:42:31;;;;;;;6.03;0.73;;;19.50;99.90;;;;;;5053636;28;20427;-71
2021/09/03 11:45:03;;;;;;;1.33;1.23;;;19.80;17.30;;;;;;5053561;28;20492;-71
2021/09/03 11:47:38;;;;;;;0.47;0.40;;;20.00;1.00;;;;;;5053621;28;20503;-71
2021/09/03 11:50:13;;;;;;;1.10;0.70;;;20.20;1.00;;;;;;5053289;28;20434;-71
2021/09/03 11:52:41;;;;;;;4.30;2.50;;;20.30;1.00;;;;;;5053399;28;20426;-72
2021/09/03 11:55:13;;;;;;;0.40;0.20;;;20.20;1.00;;;;;;5052216;28;20463;-73
2021/09/03 11:58:00;;;;;;;2.90;1.60;;;20.10;99.90;;;;;;5053426;28;20801;-72
2021/09/03 12:00:33;;;;;;;1.93;1.03;;;19.60;99.90;;;;;;5052129;28;20422;-71
2021/09/03 12:03:01;;;;;;;0.47;0.30;;;19.60;99.90;;;;;;5053401;28;20411;-74
2021/09/03 12:05:26;;;;;;;0.60;0.40;;;19.70;99.90;;;;;;5053936;28;20431;-74
2021/09/03 12:08:05;;;;;;;2.07;1.87;;;19.50;99.90;;;;;;5053541;28;20419;-70
2021/09/03 12:10:38;;;;;;;6.07;3.07;;;19.50;99.90;;;;;;5053178;28;20184;-71
2021/09/03 12:13:29;;;;;;;2.73;1.23;;;19.60;99.90;;;;;;5053973;28;20419;-70
2021/09/03 12:16:22;;;;;;;8.60;3.53;;;19.70;99.90;;;;;;5044548;28;20467;-72
2021/09/03 12:18:56;;;;;;;2.30;1.50;;;19.50;99.90;;;;;;5053852;28;20489;-71
2021/09/03 12:21:40;;;;;;;3.83;2.70;;;19.40;99.90;;;;;;5053621;28;20924;-71
2021/09/03 12:24:08;;;;;;;3.40;2.00;;;19.40;99.90;;;;;;5053531;28;20510;-72
2021/09/03 12:26:35;;;;;;;1.00;0.50;;;19.60;99.90;;;;;;5051274;28;20489;-72
2021/09/03 12:29:01;;;;;;;1.47;1.23;;;19.70;99.90;;;;;;5040872;28;20528;-71
2021/09/03 12:31:29;;;;;;;2.10;1.90;;;19.80;99.90;;;;;;5044162;28;20581;-71
2021/09/03 12:34:03;;;;;;;10.20;5.63;;;19.90;99.90;;;;;;5043960;28;20460;-72
2021/09/03 12:36:31;;;;;;;0.50;0.40;;;19.80;99.90;;;;;;5042561;28;20464;-72
2021/09/03 12:38:59;;;;;;;2.77;2.50;;;19.60;99.90;;;;;;5040966;28;20826;-71
2021/09/03 12:41:31;;;;;;;2.50;2.30;;;19.90;99.90;;;;;;5044177;28;20916;-72
2021/09/03 12:44:00;;;;;;;3.00;2.73;;;19.50;99.90;;;;;;5041028;28;20870;-71
2021/09/03 12:46:25;;;;;;;1.17;0.87;;;19.60;99.90;;;;;;5045962;28;20427;-72
2021/09/03 12:49:05;;;;;;;3.20;2.93;;;19.60;99.90;;;;;;5044888;28;20503;-70